createdAt,value
2022-08-21T00:00:29.044Z,4.47
2022-08-21T00:05:32.384Z,6.18
2022-08-21T00:15:37.539Z,6.55
2022-08-21T00:20:40.713Z,4.88
2022-08-21T00:25:43.213Z,5.55
2022-08-21T00:30:45.570Z,6.03
2022-08-21T00:35:46.921Z,5.50
2022-08-21T00:40:55.290Z,6.63
2022-08-21T00:45:57.847Z,5.85
2022-08-21T00:51:09.518Z,7.43
2022-08-21T00:56:12.443Z,5.15
2022-08-21T01:01:14.879Z,7.05
2022-08-21T01:06:16.294Z,5.50
2022-08-21T01:11:18.225Z,5.45
2022-08-21T01:16:22.427Z,5.32
2022-08-21T01:21:28.072Z,6.45
2022-08-21T01:26:34.329Z,6.43
2022-08-21T01:31:36.103Z,6.30
2022-08-21T01:36:37.565Z,6.05
2022-08-21T01:41:38.943Z,5.85
2022-08-21T01:46:40.546Z,7.35
2022-08-21T01:51:42.168Z,6.95
2022-08-21T01:56:47.242Z,5.00
2022-08-21T02:01:49.410Z,5.60
2022-08-21T02:06:51.070Z,4.78
2022-08-21T02:11:53.162Z,7.28
2022-08-21T02:17:05.538Z,7.90
2022-08-21T02:22:11.871Z,7.85
2022-08-21T02:27:13.207Z,4.95
2022-08-21T02:32:15.840Z,6.50
2022-08-21T02:37:17.362Z,7.57
2022-08-21T02:42:18.935Z,7.15
2022-08-21T02:47:20.363Z,5.63
2022-08-21T02:52:22.829Z,6.55
2022-08-21T02:57:24.221Z,7.32
2022-08-21T03:02:26.662Z,8.82
2022-08-21T03:07:28.156Z,7.20
2022-08-21T03:12:30.081Z,6.88
2022-08-21T03:17:31.980Z,5.85
2022-08-21T03:22:33.628Z,7.25
2022-08-21T03:27:35.414Z,5.05
2022-08-21T03:32:37.205Z,5.13
2022-08-21T03:37:38.617Z,5.53
2022-08-21T03:42:40.408Z,6.38
2022-08-21T03:48:11.171Z,6.53
2022-08-21T03:53:17.355Z,6.63
2022-08-21T03:58:21.249Z,6.60
2022-08-21T04:08:24.342Z,6.28
2022-08-21T04:13:28.952Z,6.82
2022-08-21T04:18:30.381Z,9.25
2022-08-21T04:23:32.130Z,9.02
2022-08-21T04:28:33.470Z,8.57
2022-08-21T04:33:35.542Z,6.78
2022-08-21T04:38:37.754Z,8.88
2022-08-21T04:43:40.390Z,5.37
2022-08-21T04:48:41.878Z,6.10
2022-08-21T04:53:50.022Z,8.20
2022-08-21T04:58:58.175Z,8.57
2022-08-21T05:04:02.751Z,7.28
2022-08-21T05:09:05.249Z,8.43
2022-08-21T05:14:06.647Z,7.22
2022-08-21T05:19:09.132Z,7.78
2022-08-21T05:24:11.275Z,6.60
2022-08-21T05:29:13.577Z,6.72
2022-08-21T05:34:19.135Z,7.25
2022-08-21T05:39:20.768Z,9.63
2022-08-21T05:44:22.490Z,10.65
2022-08-21T05:49:23.949Z,7.40
2022-08-21T05:54:25.707Z,8.43
2022-08-21T05:59:28.546Z,8.00
2022-08-21T06:04:30.238Z,10.50
2022-08-21T06:09:31.726Z,9.15
2022-08-21T06:14:33.154Z,8.55
2022-08-21T06:19:36.251Z,9.82
2022-08-21T06:24:37.634Z,8.55
2022-08-21T06:29:44.378Z,8.80
2022-08-21T06:34:46.191Z,9.15
2022-08-21T06:39:47.571Z,7.35
2022-08-21T06:44:51.178Z,9.65
2022-08-21T06:49:52.582Z,9.38
2022-08-21T06:54:54.760Z,7.78
2022-08-21T06:59:56.110Z,7.85
2022-08-21T07:04:57.482Z,8.13
2022-08-21T07:09:58.917Z,7.97
2022-08-21T07:15:00.399Z,8.90
2022-08-21T07:20:02.065Z,9.05
2022-08-21T07:25:05.246Z,8.52
2022-08-21T07:30:07.545Z,8.27
2022-08-21T07:35:09.039Z,7.75
2022-08-21T07:40:10.887Z,8.52
2022-08-21T07:45:13.714Z,7.95
2022-08-21T07:50:16.276Z,8.65
2022-08-21T07:55:20.575Z,6.30
2022-08-21T08:00:25.219Z,6.85
2022-08-21T08:05:29.017Z,7.78
2022-08-21T08:10:30.581Z,7.85
2022-08-21T08:15:37.349Z,7.93
2022-08-21T08:20:39.063Z,8.27
2022-08-21T08:25:41.952Z,8.38
2022-08-21T08:30:43.553Z,8.80
2022-08-21T08:35:48.606Z,7.93
2022-08-21T08:41:19.781Z,6.72
2022-08-21T08:46:35.271Z,10.02
2022-08-21T08:51:43.139Z,7.03
2022-08-21T08:56:45.994Z,6.38
2022-08-21T09:06:55.311Z,5.63
2022-08-21T09:12:11.370Z,8.13
2022-08-21T09:17:25.053Z,5.57
2022-08-21T09:22:50.596Z,7.97
2022-08-21T09:27:52.397Z,5.82
2022-08-21T09:32:53.883Z,7.50
2022-08-21T09:38:03.745Z,6.88
2022-08-21T09:43:22.740Z,7.07
2022-08-21T09:48:32.459Z,5.97
2022-08-21T09:53:36.303Z,6.43
2022-08-21T09:58:39.913Z,7.30
2022-08-21T10:03:41.418Z,5.22
2022-08-21T10:08:42.894Z,5.03
2022-08-21T10:14:11.010Z,5.23
2022-08-21T10:19:32.066Z,5.95
2022-08-21T10:24:45.740Z,6.20
2022-08-21T10:29:56.063Z,3.88
2022-08-21T10:35:09.243Z,5.82
2022-08-21T10:40:22.419Z,8.23
2022-08-21T10:46:03.522Z,6.85
2022-08-21T10:51:15.069Z,4.32
2022-08-21T10:56:39.302Z,3.70
2022-08-21T11:02:00.636Z,5.40
2022-08-21T11:07:20.776Z,4.40
2022-08-21T11:12:43.500Z,5.50
2022-08-21T11:17:56.469Z,4.30
2022-08-21T11:23:15.500Z,4.40
2022-08-21T11:28:22.382Z,4.90
2022-08-21T11:33:43.382Z,4.30
2022-08-21T11:38:58.028Z,4.07
2022-08-21T11:44:35.380Z,6.07
2022-08-21T11:49:39.508Z,3.28
2022-08-21T11:55:23.497Z,4.25
2022-08-21T12:00:40.091Z,4.18
2022-08-21T12:05:45.634Z,4.13
2022-08-21T12:10:59.813Z,4.55
2022-08-21T12:16:15.406Z,3.42
2022-08-21T12:21:29.466Z,2.78
2022-08-21T12:26:48.592Z,4.38
2022-08-21T12:32:06.214Z,4.03
2022-08-21T12:37:35.931Z,5.63
2022-08-21T12:42:58.046Z,4.53
2022-08-21T12:48:27.089Z,6.05
2022-08-21T12:53:48.967Z,2.58
2022-08-21T12:58:54.721Z,3.55
2022-08-21T13:04:04.630Z,6.13
2022-08-21T13:09:11.765Z,3.27
2022-08-21T13:14:35.095Z,4.00
2022-08-21T13:19:42.239Z,3.53
2022-08-21T13:24:43.971Z,4.20
2022-08-21T13:29:47.454Z,5.45
2022-08-21T13:34:55.436Z,4.18
2022-08-21T13:39:56.960Z,10.05
2022-08-21T13:44:58.367Z,2.28
2022-08-21T13:55:16.907Z,4.05
2022-08-21T14:00:27.758Z,4.63
2022-08-21T14:05:32.787Z,5.07
2022-08-21T14:10:41.766Z,5.32
2022-08-21T14:15:44.390Z,4.43
2022-08-21T14:20:46.655Z,4.07
2022-08-21T14:25:48.169Z,4.03
2022-08-21T14:30:51.523Z,4.10
2022-08-21T14:35:55.354Z,4.05
2022-08-21T14:41:01.242Z,3.30
2022-08-21T14:46:02.655Z,3.13
2022-08-21T14:51:04.137Z,4.13
2022-08-21T14:56:06.001Z,4.20
2022-08-21T15:06:11.357Z,3.78
2022-08-21T15:11:41.108Z,3.17
2022-08-21T15:16:39.246Z,3.83
2022-08-21T15:21:40.635Z,5.80
2022-08-21T15:26:42.630Z,2.40
2022-08-21T15:37:02.082Z,3.97
2022-08-21T15:42:10.587Z,4.15
2022-08-21T15:47:18.856Z,3.83
2022-08-21T15:52:22.291Z,1.88
2022-08-21T15:57:25.415Z,3.58
2022-08-21T16:02:31.247Z,3.00
2022-08-21T16:07:32.713Z,2.38
2022-08-21T16:12:39.561Z,2.63
2022-08-21T16:17:44.593Z,4.00
2022-08-21T16:22:46.319Z,3.25
2022-08-21T16:27:53.632Z,3.53
2022-08-21T16:32:58.097Z,3.45
2022-08-21T16:37:59.692Z,3.28
2022-08-21T16:43:02.174Z,1.90
2022-08-21T16:48:06.460Z,4.03
2022-08-21T16:53:08.553Z,2.85
2022-08-21T16:58:32.266Z,2.60
2022-08-21T17:03:42.287Z,2.65
2022-08-21T17:08:44.742Z,3.45
2022-08-21T17:18:47.806Z,2.13
2022-08-21T17:23:53.614Z,3.83
2022-08-21T17:28:55.227Z,2.85
2022-08-21T17:33:56.872Z,1.93
2022-08-21T17:38:58.865Z,2.78
2022-08-21T17:44:06.195Z,2.35
2022-08-21T17:49:08.513Z,3.00
2022-08-21T17:54:10.399Z,1.83
2022-08-21T17:59:12.165Z,3.03
2022-08-21T18:04:14.251Z,2.65
2022-08-21T18:09:15.620Z,3.03
2022-08-21T18:14:17.022Z,3.83
2022-08-21T18:19:21.350Z,4.60
2022-08-21T18:24:23.907Z,2.47
2022-08-21T18:29:25.363Z,4.00
2022-08-21T18:34:31.776Z,3.35
2022-08-21T18:39:37.269Z,2.65
2022-08-21T18:44:41.224Z,4.10
2022-08-21T18:49:42.634Z,3.38
2022-08-21T18:54:44.332Z,4.00
2022-08-21T18:59:46.548Z,4.80
2022-08-21T19:04:48.197Z,2.85
2022-08-21T19:10:20.993Z,2.50
2022-08-21T19:15:17.333Z,3.33
2022-08-21T19:20:26.161Z,3.95
2022-08-21T19:25:33.919Z,2.72
2022-08-21T19:30:47.935Z,3.80
2022-08-21T19:41:13.833Z,4.05
2022-08-21T19:46:22.122Z,6.35
2022-08-21T19:51:24.019Z,2.03
2022-08-21T19:56:28.939Z,3.25
2022-08-21T20:01:30.455Z,2.20
2022-08-21T20:06:34.820Z,1.80
2022-08-21T20:11:45.168Z,2.97
2022-08-21T20:16:52.435Z,2.50
2022-08-21T20:21:55.086Z,2.53
2022-08-21T20:26:58.329Z,3.22
2022-08-21T20:32:00.270Z,2.50
2022-08-21T20:37:02.053Z,1.40
2022-08-21T20:42:08.769Z,1.48
2022-08-21T20:47:10.676Z,2.03
2022-08-21T20:52:15.905Z,2.08
2022-08-21T20:57:22.003Z,2.90
2022-08-21T21:02:46.093Z,2.13
2022-08-21T21:08:12.071Z,1.00
2022-08-21T21:13:44.570Z,1.83
2022-08-21T21:18:54.295Z,1.63
2022-08-21T21:24:20.345Z,3.47
2022-08-21T21:29:30.356Z,1.27
2022-08-21T21:34:38.343Z,3.08
2022-08-21T21:39:53.155Z,5.30
2022-08-21T21:45:10.110Z,1.90
2022-08-21T21:50:20.948Z,1.50
2022-08-21T21:55:53.265Z,1.85
2022-08-21T22:01:11.977Z,4.25
2022-08-21T22:06:23.018Z,4.03
2022-08-21T22:11:33.273Z,2.00
2022-08-21T22:16:36.892Z,1.98
2022-08-21T22:21:42.483Z,1.80
2022-08-21T22:26:50.660Z,1.42
2022-08-21T22:32:10.457Z,1.90
2022-08-21T22:37:12.832Z,2.13
2022-08-21T22:42:22.207Z,3.20
2022-08-21T22:47:30.437Z,2.47
2022-08-21T22:52:37.264Z,2.20
2022-08-21T22:57:39.599Z,2.92
2022-08-21T23:03:16.477Z,2.10
2022-08-21T23:08:37.273Z,2.60
2022-08-21T23:13:45.757Z,2.13
2022-08-21T23:19:11.355Z,3.00
2022-08-21T23:24:50.404Z,2.70
2022-08-21T23:29:51.809Z,2.65
2022-08-21T23:35:44.179Z,1.15
2022-08-21T23:40:57.994Z,2.53
2022-08-21T23:46:20.983Z,3.22
2022-08-21T23:51:57.453Z,1.98
2022-08-21T23:57:08.247Z,1.40
